Time,TemperatureC,DewpointC,PressurehPa,WindDirection,WindDirectionDegrees,WindSpeedKMH,WindSpeedGustKMH,Humidity,HourlyPrecipMM,Conditions,Clouds,dailyrainMM,SolarRadiationWatts/m^2,UVIndex,SoftwareType,DateUTC
2022-12-08 00:04:54,12.2,10.6,1008.7,East,88,1.8,1.6,90,0.0,,,0.0,,,n/a,2022-12-07T23:04:54Z
2022-12-08 00:09:49,12,10.4,1008.7,East,88,1.7,1.6,90,0.0,,,0.0,,,n/a,2022-12-07T23:09:49Z
2022-12-08 00:14:53,12,10.4,1008.6,East,84,1.9,1.6,90,0.0,,,0.0,,,n/a,2022-12-07T23:14:53Z
2022-12-08 00:19:58,12.1,10.4,1008.6,ENE,78,1.6,1.6,90,0.0,,,0.0,,,n/a,2022-12-07T23:19:58Z
2022-12-08 00:24:53,12,10.4,1008.6,ENE,73,1.9,1.6,90,0.0,,,0.0,,,n/a,2022-12-07T23:24:53Z
2022-12-08 00:29:50,12,10.4,1008.6,ENE,72,1,1.6,90,0.0,,,0.0,,,n/a,2022-12-07T23:29:50Z
2022-12-08 00:34:54,12,10.4,1008.6,ENE,76,1.9,1.6,90,0.0,,,0.0,,,n/a,2022-12-07T23:34:54Z
2022-12-08 00:39:54,12,10.4,1008.6,ENE,66,1.5,1.6,90,0.0,,,0.0,,,n/a,2022-12-07T23:39:54Z
2022-12-08 00:44:48,12,10.4,1008.6,ENE,68,1.7,1.6,90,0.0,,,0.0,,,n/a,2022-12-07T23:44:48Z
2022-12-08 00:49:57,12,10.4,1008.6,ENE,71,1.9,1.6,90,0.0,,,0.0,,,n/a,2022-12-07T23:49:57Z
2022-12-08 00:54:50,12.1,10.6,1008.5,ENE,70,1.3,1.6,91,0.0,,,0.0,,,n/a,2022-12-07T23:54:50Z
2022-12-08 00:59:59,12.1,10.5,1008.4,East,83,1.9,1.6,90.2,0.0,,,0.0,,,n/a,2022-12-07T23:59:59Z
2022-12-08 01:04:48,12.1,10.6,1008.4,ENE,74,0.9,1.6,90.9,0.0,,,0.0,,,n/a,2022-12-08T00:04:48Z
2022-12-08 01:09:59,12.1,10.7,1008.5,ENE,74,1.1,1.6,91,0.0,,,0.0,,,n/a,2022-12-08T00:09:59Z
2022-12-08 01:14:53,12.1,10.7,1008.5,ENE,73,1,1.6,90.8,0.0,,,0.0,,,n/a,2022-12-08T00:14:53Z
2022-12-08 01:19:48,12.2,10.7,1008.5,ENE,73,0,1.6,91,0.0,,,0.0,,,n/a,2022-12-08T00:19:48Z
2022-12-08 01:24:55,12.2,10.7,1008.5,ENE,73,0.6,0.2,91,0.0,,,0.0,,,n/a,2022-12-08T00:24:55Z
2022-12-08 01:29:50,12.2,10.7,1008.5,ENE,71,0.4,1.6,91,0.0,,,0.0,,,n/a,2022-12-08T00:29:50Z
2022-12-08 01:34:54,12.2,10.7,1008.5,ENE,71,0.6,1.6,91,0.0,,,0.0,,,n/a,2022-12-08T00:34:54Z
2022-12-08 01:39:49,12.2,10.7,1008.5,ENE,72,1.5,1.6,91,0.0,,,0.0,,,n/a,2022-12-08T00:39:49Z
2022-12-08 01:44:54,12.2,10.8,1008.5,ENE,72,0,1.6,91,0.0,,,0.0,,,n/a,2022-12-08T00:44:54Z
2022-12-08 01:49:58,12.2,10.8,1008.6,ENE,72,0.5,0.3,91,0.0,,,0.0,,,n/a,2022-12-08T00:49:58Z
2022-12-08 01:54:52,12.3,10.8,1008.6,ENE,72,0,1.6,91,0.0,,,0.0,,,n/a,2022-12-08T00:54:52Z
2022-12-08 01:59:56,12.3,10.8,1008.6,ENE,76,0.8,0.8,91,0.0,,,0.0,,,n/a,2022-12-08T00:59:56Z
2022-12-08 02:04:48,12.2,10.8,1008.6,East,89,1.9,1.6,91,0.0,,,0.0,,,n/a,2022-12-08T01:04:48Z
2022-12-08 02:09:59,12.1,10.7,1008.7,ENE,77,1.8,1.6,91,0.0,,,0.0,,,n/a,2022-12-08T01:09:59Z
2022-12-08 02:14:52,12.1,10.6,1008.8,ENE,74,1.9,1.6,91,0.0,,,0.0,,,n/a,2022-12-08T01:14:52Z
2022-12-08 02:19:59,12.1,10.6,1008.7,ENE,63,2.3,1.6,91,0.0,,,0.0,,,n/a,2022-12-08T01:19:59Z
2022-12-08 02:24:53,12,10.6,1008.7,ENE,69,1.7,3.2,91,0.0,,,0.0,,,n/a,2022-12-08T01:24:53Z
2022-12-08 02:29:48,11.9,10.5,1008.6,East,87,1.9,1.6,91,0.0,,,0.0,,,n/a,2022-12-08T01:29:48Z
2022-12-08 02:34:53,12,10.7,1008.6,ENE,77,1.9,1.6,91.7,0.0,,,0.0,,,n/a,2022-12-08T01:34:53Z
2022-12-08 02:39:54,12.1,10.8,1008.5,East,81,1.5,1.6,92,0.0,,,0.0,,,n/a,2022-12-08T01:39:54Z
2022-12-08 02:44:48,12.2,10.9,1008.4,East,80,1,1.6,92,0.2,,,0.2,,,n/a,2022-12-08T01:44:48Z
2022-12-08 02:49:57,12.2,10.9,1008.4,East,80,1.3,1.6,92,0.2,,,0.2,,,n/a,2022-12-08T01:49:57Z
2022-12-08 02:54:52,12.2,10.9,1008.4,East,79,1.9,1.6,92,0.2,,,0.2,,,n/a,2022-12-08T01:54:52Z
2022-12-08 02:59:48,12.3,11,1008.4,East,80,1.9,1.6,92,0.2,,,0.2,,,n/a,2022-12-08T01:59:48Z
2022-12-08 03:04:53,12.3,11,1008.5,ENE,74,1,1.6,92,0.2,,,0.2,,,n/a,2022-12-08T02:04:53Z
2022-12-08 03:09:52,12.3,11,1008.5,ENE,74,0,1.6,92,0.2,,,0.2,,,n/a,2022-12-08T02:09:52Z
2022-12-08 03:14:57,12.2,10.9,1008.5,ENE,74,0,0,92,0.2,,,0.2,,,n/a,2022-12-08T02:14:57Z
2022-12-08 03:19:53,12.2,10.9,1008.5,ENE,74,1,0.3,92,0.2,,,0.2,,,n/a,2022-12-08T02:19:53Z
2022-12-08 03:24:59,12.1,10.8,1008.5,East,79,1.8,1.6,92,0.2,,,0.2,,,n/a,2022-12-08T02:24:59Z
2022-12-08 03:29:55,12.1,10.8,1008.3,ENE,77,1.7,1.6,92,0.2,,,0.2,,,n/a,2022-12-08T02:29:55Z
2022-12-08 03:34:59,12.1,10.8,1008.3,ENE,77,1.9,1.6,92,0.2,,,0.2,,,n/a,2022-12-08T02:34:59Z
2022-12-08 03:39:55,12.1,10.9,1008.2,ENE,69,1.9,1.6,92.5,0.2,,,0.2,,,n/a,2022-12-08T02:39:55Z
2022-12-08 03:44:50,12.2,11.1,1008.2,ENE,64,1.8,1.6,93,0.2,,,0.2,,,n/a,2022-12-08T02:44:50Z
2022-12-08 03:49:54,12.2,11.1,1008.2,East,79,1.9,1.6,93,0.0,,,0.2,,,n/a,2022-12-08T02:49:54Z
2022-12-08 03:54:50,12.2,11.1,1008.2,ENE,77,1.9,1.6,93,0.0,,,0.2,,,n/a,2022-12-08T02:54:50Z
2022-12-08 03:59:57,12.2,11.1,1008.2,ENE,73,0.2,1.6,93,0.0,,,0.2,,,n/a,2022-12-08T02:59:57Z
2022-12-08 04:04:50,12.2,11.1,1008.2,ENE,73,0.8,0.2,93,0.0,,,0.2,,,n/a,2022-12-08T03:04:50Z
2022-12-08 04:09:51,12.2,11.1,1008.3,ENE,72,1.4,1.6,93,0.0,,,0.2,,,n/a,2022-12-08T03:09:51Z
2022-12-08 04:14:57,12.3,11.2,1008.3,ENE,73,0.6,1.6,93,0.0,,,0.2,,,n/a,2022-12-08T03:14:57Z
2022-12-08 04:19:54,12.3,11.2,1008.2,ENE,72,1.9,1.6,93,0.0,,,0.2,,,n/a,2022-12-08T03:19:54Z
2022-12-08 04:24:48,12.4,11.3,1008.2,ENE,72,1.9,1.6,93,0.0,,,0.2,,,n/a,2022-12-08T03:24:48Z
2022-12-08 04:29:56,12.5,11.4,1008.3,ENE,72,1.7,1.6,93,0.0,,,0.2,,,n/a,2022-12-08T03:29:56Z
2022-12-08 04:34:49,12.6,11.5,1008.3,ENE,73,1.9,1.6,93,0.0,,,0.2,,,n/a,2022-12-08T03:34:49Z
2022-12-08 04:39:49,12.6,11.5,1008.3,ENE,73,0.5,1.6,93,0.0,,,0.2,,,n/a,2022-12-08T03:39:49Z
2022-12-08 04:44:56,12.7,11.6,1008.3,ENE,72,1.6,1.6,93,0.0,,,0.2,,,n/a,2022-12-08T03:44:56Z
2022-12-08 04:49:55,12.7,11.6,1008.3,East,86,1.9,1.6,93,0.0,,,0.2,,,n/a,2022-12-08T03:49:55Z
2022-12-08 04:54:59,12.5,11.3,1008.3,East,98,1.9,1.6,92.8,0.0,,,0.2,,,n/a,2022-12-08T03:54:59Z
2022-12-08 04:59:59,12.3,11.1,1008.2,East,100,1.9,1.6,92.4,0.0,,,0.2,,,n/a,2022-12-08T03:59:59Z
2022-12-08 05:04:56,12.2,11.1,1008.1,East,89,1.9,1.6,93,0.0,,,0.2,,,n/a,2022-12-08T04:04:56Z
2022-12-08 05:09:57,12.3,11.1,1008.0,East,87,1.9,1.6,93,0.0,,,0.2,,,n/a,2022-12-08T04:09:57Z
2022-12-08 05:14:52,12.3,11.2,1008.0,East,89,1.9,1.6,93,0.0,,,0.2,,,n/a,2022-12-08T04:14:52Z
2022-12-08 05:19:50,12.5,11.4,1008.1,East,90,1.3,1.6,93,0.0,,,0.2,,,n/a,2022-12-08T04:19:50Z
2022-12-08 05:24:55,12.6,11.6,1008.1,East,90,1.9,1.6,93.8,0.0,,,0.2,,,n/a,2022-12-08T04:24:55Z
2022-12-08 05:29:49,12.6,11.5,1008.1,East,90,0.9,1.6,93,0.0,,,0.2,,,n/a,2022-12-08T04:29:49Z
2022-12-08 05:34:49,12.6,11.5,1008.2,East,90,1.9,1.6,93,0.0,,,0.2,,,n/a,2022-12-08T04:34:49Z
2022-12-08 05:39:58,12.6,11.5,1008.2,East,90,0.3,1.6,93,0.0,,,0.2,,,n/a,2022-12-08T04:39:58Z
2022-12-08 05:44:48,12.6,11.5,1008.2,East,88,1.9,1.6,93,0.0,,,0.2,,,n/a,2022-12-08T04:44:48Z
2022-12-08 05:49:57,12.6,11.5,1008.2,East,81,1.9,1.6,93,0.0,,,0.2,,,n/a,2022-12-08T04:49:57Z
2022-12-08 05:54:50,12.6,11.5,1008.2,East,79,1.9,1.6,93,0.0,,,0.2,,,n/a,2022-12-08T04:54:50Z
2022-12-08 05:59:48,12.5,11.4,1008.1,ENE,66,1.9,1.6,93,0.0,,,0.2,,,n/a,2022-12-08T04:59:48Z
2022-12-08 06:04:57,12.5,11.4,1008.1,ENE,75,1.9,1.6,93,0.0,,,0.2,,,n/a,2022-12-08T05:04:57Z
2022-12-08 06:09:54,12.4,11.3,1008.2,East,87,1.9,1.6,93,0.0,,,0.2,,,n/a,2022-12-08T05:09:54Z
2022-12-08 06:14:51,12,10.8,1008.2,East,101,1.9,1.6,92.6,0.0,,,0.2,,,n/a,2022-12-08T05:14:51Z
2022-12-08 06:19:58,11.7,10.4,1008.2,East,93,1.9,1.6,92.1,0.0,,,0.2,,,n/a,2022-12-08T05:19:58Z
2022-12-08 06:24:55,11.4,10.3,1008.2,ESE,106,1.9,1.6,92.9,0.0,,,0.2,,,n/a,2022-12-08T05:24:55Z
2022-12-08 06:29:54,11.2,10.1,1008.2,ESE,107,1.9,1.6,92.8,0.0,,,0.2,,,n/a,2022-12-08T05:29:54Z
2022-12-08 06:34:48,11.3,10.1,1008.2,ESE,104,1.9,3.2,93,0.0,,,0.2,,,n/a,2022-12-08T05:34:48Z
2022-12-08 06:39:52,11.3,10.2,1008.2,East,96,1.9,1.6,93,0.0,,,0.2,,,n/a,2022-12-08T05:39:52Z
2022-12-08 06:44:49,11.4,10.5,1008.3,East,90,1.9,1.6,93.8,0.0,,,0.2,,,n/a,2022-12-08T05:44:49Z
2022-12-08 06:49:49,11.5,10.5,1008.3,East,93,1.9,1.6,93.7,0.0,,,0.2,,,n/a,2022-12-08T05:49:49Z
2022-12-08 06:54:57,11.5,10.6,1008.4,East,86,1.9,1.6,93.9,0.0,,,0.2,,,n/a,2022-12-08T05:54:57Z
2022-12-08 06:59:54,11.7,10.7,1008.4,East,83,1.9,3.2,94,0.0,,,0.2,,,n/a,2022-12-08T05:59:54Z
2022-12-08 07:04:58,11.8,10.9,1008.5,ENE,68,2,1.6,94,0.0,,,0.2,,,n/a,2022-12-08T06:04:58Z
2022-12-08 07:09:49,11.9,10.9,1008.5,East,79,1.9,4.8,94,0.0,,,0.2,,,n/a,2022-12-08T06:09:49Z
2022-12-08 07:14:53,11.8,10.9,1008.6,East,85,1.9,1.6,94,0.0,,,0.2,,,n/a,2022-12-08T06:14:53Z
2022-12-08 07:19:51,11.8,10.8,1008.7,East,87,1.9,1.6,94,0.0,,,0.2,,,n/a,2022-12-08T06:19:51Z
2022-12-08 07:24:57,11.7,10.8,1008.8,East,90,1.7,1.6,94,0.0,,,0.2,,,n/a,2022-12-08T06:24:57Z
2022-12-08 07:29:54,11.7,10.7,1008.9,East,91,1.3,1.6,94,0.0,,,0.2,,,n/a,2022-12-08T06:29:54Z
2022-12-08 07:34:59,11.8,10.9,1009.0,East,87,0.7,1.6,94,0.0,,,0.2,,,n/a,2022-12-08T06:34:59Z
2022-12-08 07:39:49,12.1,11.1,1009.0,ENE,77,1.9,1.6,94,0.0,,,0.2,,,n/a,2022-12-08T06:39:49Z
2022-12-08 07:44:56,12.2,11.3,1009.0,East,85,1.9,1.6,94,0.0,,,0.2,,,n/a,2022-12-08T06:44:56Z
2022-12-08 07:49:53,12.5,11.5,1009.0,East,83,0.6,1.6,94,0.0,,,0.2,,,n/a,2022-12-08T06:49:53Z
2022-12-08 07:54:48,12.6,11.7,1009.0,East,83,0.9,1.6,94,0.0,,,0.2,,,n/a,2022-12-08T06:54:48Z
2022-12-08 07:59:59,12.7,11.8,1009.1,East,85,1.9,1.6,94,0.0,,,0.2,,,n/a,2022-12-08T06:59:59Z
2022-12-08 08:04:56,12.8,11.8,1009.0,East,89,1.7,1.6,94,0.0,,,0.2,,,n/a,2022-12-08T07:04:56Z
2022-12-08 08:09:58,12.7,11.8,1009.1,East,92,0.7,1.6,94,0.0,,,0.2,,,n/a,2022-12-08T07:09:58Z
2022-12-08 08:14:53,12.8,11.8,1009.1,East,92,0.9,1.6,94,0.0,,,0.2,,,n/a,2022-12-08T07:14:53Z
2022-12-08 08:19:51,12.8,11.9,1009.2,East,92,1.3,1.6,94,0.0,,,0.2,,,n/a,2022-12-08T07:19:51Z
2022-12-08 08:24:58,12.9,11.9,1009.2,East,92,1.3,1.6,94,0.0,,,0.2,,,n/a,2022-12-08T07:24:58Z
2022-12-08 08:29:55,13,12,1009.3,East,92,1.2,1.6,94,0.0,,,0.2,,,n/a,2022-12-08T07:29:55Z
2022-12-08 08:34:59,13.1,12.1,1009.3,East,92,0,1.6,94,0.0,,,0.2,,,n/a,2022-12-08T07:34:59Z
2022-12-08 08:39:48,13.1,12.2,1009.4,East,92,0,0,94,0.0,,,0.2,,,n/a,2022-12-08T07:39:48Z
2022-12-08 08:44:53,13.1,12.2,1009.4,East,92,1.3,0.6,94,0.0,,,0.2,,,n/a,2022-12-08T07:44:53Z
2022-12-08 08:49:51,13,12.1,1009.3,East,90,1.9,1.6,94,0.0,,,0.2,,,n/a,2022-12-08T07:49:51Z
2022-12-08 08:54:55,13,12.1,1009.3,ESE,114,1.9,1.6,94,0.0,,,0.2,,,n/a,2022-12-08T07:54:55Z
2022-12-08 08:59:54,13,12.1,1009.2,ESE,105,1.9,1.6,94,0.0,,,0.2,,,n/a,2022-12-08T07:59:54Z
2022-12-08 09:04:57,13,12.1,1009.3,East,84,1.9,1.6,94,0.0,,,0.2,,,n/a,2022-12-08T08:04:57Z
2022-12-08 09:09:48,13,12.1,1009.4,ENE,63,1.8,3.2,94,0.0,,,0.2,,,n/a,2022-12-08T08:09:48Z
2022-12-08 09:14:56,13.1,12.1,1009.4,ENE,62,1.9,1.6,94,0.0,,,0.2,,,n/a,2022-12-08T08:14:56Z
2022-12-08 09:19:55,13.1,12.2,1009.5,ENE,64,1.1,1.6,94,0.0,,,0.2,,,n/a,2022-12-08T08:19:55Z
2022-12-08 09:24:49,13.3,12.3,1009.6,ENE,66,0.8,1.6,94,0.0,,,0.2,,,n/a,2022-12-08T08:24:49Z
2022-12-08 09:29:48,13.5,12.5,1009.6,ENE,70,1.4,1.6,94,0.0,,,0.2,,,n/a,2022-12-08T08:29:48Z
2022-12-08 09:34:54,13.7,12.8,1009.6,East,81,1.9,1.6,94,0.0,,,0.2,,,n/a,2022-12-08T08:34:54Z
2022-12-08 09:39:56,13.8,12.8,1009.6,East,89,1.4,1.6,94,0.0,,,0.2,,,n/a,2022-12-08T08:39:56Z
2022-12-08 09:44:52,13.9,12.9,1009.8,SE,125,0.7,1.6,93.5,0.0,,,0.2,,,n/a,2022-12-08T08:44:52Z
2022-12-08 09:49:50,13.9,12.8,1009.7,ESE,120,1.9,1.6,93,0.0,,,0.2,,,n/a,2022-12-08T08:49:50Z
2022-12-08 09:54:56,14,12.9,1009.7,ESE,123,0.7,1.6,93,0.0,,,0.2,,,n/a,2022-12-08T08:54:56Z
2022-12-08 09:59:54,14.1,13,1009.7,ESE,123,0,1.6,93,0.0,,,0.2,,,n/a,2022-12-08T08:59:54Z
2022-12-08 10:04:49,14.2,13.1,1009.7,SE,126,1.8,0.5,93,0.0,,,0.2,,,n/a,2022-12-08T09:04:49Z
2022-12-08 10:09:49,14.2,13.1,1009.6,ESE,118,1.9,1.6,93,0.0,,,0.2,,,n/a,2022-12-08T09:09:49Z
2022-12-08 10:14:55,14.2,13.1,1009.6,ESE,122,1,1.6,93,0.0,,,0.2,,,n/a,2022-12-08T09:14:55Z
2022-12-08 10:19:53,14.5,13.5,1009.6,SE,134,1.9,1.6,93.6,0.0,,,0.2,,,n/a,2022-12-08T09:19:53Z
2022-12-08 10:24:48,14.8,13.8,1009.6,SSE,152,1.9,1.6,93.7,0.0,,,0.2,,,n/a,2022-12-08T09:24:48Z
2022-12-08 10:29:57,15.1,13.9,1009.7,SSE,154,0.6,1.6,93,0.0,,,0.2,,,n/a,2022-12-08T09:29:57Z
2022-12-08 10:34:50,15.3,14.2,1009.7,SSE,151,1,1.6,93,0.0,,,0.2,,,n/a,2022-12-08T09:34:50Z
2022-12-08 10:39:50,15.4,14.3,1009.6,SE,139,1.8,1.6,93,0.0,,,0.2,,,n/a,2022-12-08T09:39:50Z
2022-12-08 10:44:55,15.4,14.2,1009.5,SE,136,1.1,1.6,92.4,0.0,,,0.2,,,n/a,2022-12-08T09:44:55Z
2022-12-08 10:49:51,15.6,14.3,1009.5,South,172,0.5,1.6,92,0.0,,,0.2,,,n/a,2022-12-08T09:49:51Z
2022-12-08 10:54:55,15.8,14.5,1009.4,South,187,1.9,1.6,92,0.0,,,0.2,,,n/a,2022-12-08T09:54:55Z
2022-12-08 10:59:52,16,14.6,1009.4,SW,234,2.3,3.2,91.4,0.0,,,0.2,,,n/a,2022-12-08T09:59:52Z
2022-12-08 11:04:58,16.1,14.5,1009.4,WSW,251,2.8,3.2,90,0.0,,,0.2,,,n/a,2022-12-08T10:04:58Z
2022-12-08 11:09:58,16.3,14.4,1009.3,SW,224,4,3.2,88.7,0.0,,,0.2,,,n/a,2022-12-08T10:09:58Z
2022-12-08 11:14:53,16.3,14.1,1009.3,SW,233,6.1,6.4,87,0.0,,,0.2,,,n/a,2022-12-08T10:14:53Z
2022-12-08 11:19:50,16.3,13.9,1009.4,WSW,240,7.8,9.7,85.8,0.0,,,0.2,,,n/a,2022-12-08T10:19:50Z
2022-12-08 11:24:54,16.2,13.7,1009.3,WSW,242,4.6,11.3,85,0.0,,,0.2,,,n/a,2022-12-08T10:24:54Z
2022-12-08 11:29:52,16.3,13.7,1009.2,SSW,197,2.3,4.8,84.5,0.0,,,0.2,,,n/a,2022-12-08T10:29:52Z
2022-12-08 11:34:58,16.5,13.8,1009.2,South,191,1.9,3.2,84,0.0,,,0.2,,,n/a,2022-12-08T10:34:58Z
2022-12-08 11:39:57,16.7,13.8,1009.2,WSW,239,1.9,1.6,83,0.0,,,0.2,,,n/a,2022-12-08T10:39:57Z
2022-12-08 11:44:52,16.7,13.8,1009.2,SW,226,1.9,1.6,82.8,0.0,,,0.2,,,n/a,2022-12-08T10:44:52Z
2022-12-08 11:49:50,16.8,13.6,1009.2,SW,228,1.9,1.6,81.7,0.0,,,0.2,,,n/a,2022-12-08T10:49:50Z
2022-12-08 11:54:57,16.8,13.5,1009.1,WSW,255,3.9,2.3,81,0.0,,,0.2,,,n/a,2022-12-08T10:54:57Z
2022-12-08 11:59:53,16.7,13.5,1009.1,WSW,250,1.9,6.4,81.5,0.0,,,0.2,,,n/a,2022-12-08T10:59:53Z
2022-12-08 12:04:48,16.7,13.6,1009.1,WSW,243,1.9,3.2,81.7,0.0,,,0.2,,,n/a,2022-12-08T11:04:48Z
2022-12-08 12:09:59,16.6,13.3,1009.0,SW,236,5,3.2,80.3,0.0,,,0.2,,,n/a,2022-12-08T11:09:59Z
2022-12-08 12:14:56,16.7,13.3,1008.9,West,263,3.5,6.4,80.3,0.0,,,0.2,,,n/a,2022-12-08T11:14:56Z
2022-12-08 12:19:51,16.8,13.3,1008.8,WSW,253,1.9,6.4,79.8,0.0,,,0.2,,,n/a,2022-12-08T11:19:51Z
2022-12-08 12:24:57,16.8,13.2,1008.8,WSW,250,2.9,1.6,79.1,0.0,,,0.2,,,n/a,2022-12-08T11:24:57Z
2022-12-08 12:29:54,16.9,13.3,1008.8,SW,230,2.1,4.8,79.3,0.0,,,0.2,,,n/a,2022-12-08T11:29:54Z
2022-12-08 12:34:55,17,13.2,1008.8,SSE,150,2.4,3.2,78.3,0.0,,,0.2,,,n/a,2022-12-08T11:34:55Z
2022-12-08 12:39:55,17.1,13.2,1008.8,WSW,246,2.7,3.2,78,0.0,,,0.2,,,n/a,2022-12-08T11:39:55Z
2022-12-08 12:44:50,17.1,13.2,1008.7,SSW,206,2.8,4.8,78,0.0,,,0.2,,,n/a,2022-12-08T11:44:50Z
2022-12-08 12:49:57,17.2,13.3,1008.6,SW,235,1.6,4.8,78,0.0,,,0.2,,,n/a,2022-12-08T11:49:57Z
2022-12-08 12:54:53,17.3,13.4,1008.7,WSW,245,4.6,2.7,78,0.0,,,0.2,,,n/a,2022-12-08T11:54:53Z
2022-12-08 12:59:48,17.2,13.2,1008.7,SW,219,5.5,8,77.5,0.0,,,0.2,,,n/a,2022-12-08T11:59:48Z
2022-12-08 13:04:55,17,13,1008.7,WSW,237,4.2,11.3,77,0.0,,,0.2,,,n/a,2022-12-08T12:04:55Z
2022-12-08 13:09:56,16.9,13,1008.7,West,269,3,4.8,77.4,0.0,,,0.2,,,n/a,2022-12-08T12:09:56Z
2022-12-08 13:14:53,17,13.1,1008.6,WSW,246,5.9,4.8,77.7,0.0,,,0.2,,,n/a,2022-12-08T12:14:53Z
2022-12-08 13:19:49,16.9,12.8,1008.6,SW,232,5.2,9.7,76.8,0.0,,,0.2,,,n/a,2022-12-08T12:19:49Z
2022-12-08 13:24:56,17.1,12.9,1008.5,WSW,248,1.9,9.7,76.4,0.0,,,0.2,,,n/a,2022-12-08T12:24:56Z
2022-12-08 13:29:52,17.3,12.8,1008.4,WSW,256,1.9,1.6,75.2,0.0,,,0.2,,,n/a,2022-12-08T12:29:52Z
2022-12-08 13:34:58,17.3,12.8,1008.4,SSW,208,1.9,1.6,75,0.0,,,0.2,,,n/a,2022-12-08T12:34:58Z
2022-12-08 13:39:57,17.4,12.9,1008.3,South,174,2.7,3.2,75,0.0,,,0.2,,,n/a,2022-12-08T12:39:57Z
2022-12-08 13:44:52,17.5,13,1008.3,SW,230,1.9,3.2,75,0.0,,,0.2,,,n/a,2022-12-08T12:44:52Z
2022-12-08 13:49:49,17.5,12.9,1008.3,South,184,3.6,1.8,74.7,0.0,,,0.2,,,n/a,2022-12-08T12:49:49Z
2022-12-08 13:54:57,17.5,12.8,1008.3,WSW,243,3.2,6.4,74.1,0.0,,,0.2,,,n/a,2022-12-08T12:54:57Z
2022-12-08 13:59:53,17.4,12.5,1008.3,SSE,157,1.9,6.4,73,0.0,,,0.2,,,n/a,2022-12-08T12:59:53Z
2022-12-08 14:04:59,17.4,12.2,1008.2,SSE,164,5,3.2,71.5,0.0,,,0.2,,,n/a,2022-12-08T13:04:59Z
2022-12-08 14:09:57,17.3,12,1008.2,South,179,4.2,6.4,71,0.0,,,0.2,,,n/a,2022-12-08T13:09:57Z
2022-12-08 14:14:53,17.4,12.2,1008.2,SSE,158,2.1,4.8,71.6,0.0,,,0.2,,,n/a,2022-12-08T13:14:53Z
2022-12-08 14:19:59,17.5,12.3,1008.3,SE,140,2.3,1.6,72,0.0,,,0.2,,,n/a,2022-12-08T13:19:59Z
2022-12-08 14:24:55,17.5,12.4,1008.3,SSE,149,3.7,4.8,72,0.0,,,0.2,,,n/a,2022-12-08T13:24:55Z
2022-12-08 14:29:50,17.4,12.4,1008.4,South,172,2.5,4.8,72.3,0.0,,,0.2,,,n/a,2022-12-08T13:29:50Z
2022-12-08 14:34:56,17.5,12.6,1008.5,SSE,153,4.2,3.2,72.8,0.0,,,0.2,,,n/a,2022-12-08T13:34:56Z
2022-12-08 14:39:52,17.4,12.5,1008.5,SE,141,4.1,6.4,72.9,0.0,,,0.2,,,n/a,2022-12-08T13:39:52Z
2022-12-08 14:44:58,17.4,12.5,1008.5,SSE,157,4.2,6.4,73,0.0,,,0.2,,,n/a,2022-12-08T13:44:58Z
2022-12-08 14:49:52,17.3,12.4,1008.5,SSE,157,3.3,6.4,73,0.0,,,0.2,,,n/a,2022-12-08T13:49:52Z
2022-12-08 14:54:59,17.2,12.5,1008.5,SE,146,1.9,4.8,73.4,0.0,,,0.2,,,n/a,2022-12-08T13:54:59Z
2022-12-08 14:59:53,17.2,12.5,1008.6,SSE,151,1.9,1.6,74,0.0,,,0.2,,,n/a,2022-12-08T13:59:53Z
2022-12-08 15:04:56,17.1,12.7,1008.6,SSE,156,1.9,1.6,74.9,0.0,,,0.2,,,n/a,2022-12-08T14:04:56Z
2022-12-08 15:09:51,17.1,12.6,1008.6,SSE,147,1.8,1.6,75,0.0,,,0.2,,,n/a,2022-12-08T14:09:51Z
2022-12-08 15:14:56,17.1,12.8,1008.7,SE,141,1.8,1.6,76,0.0,,,0.2,,,n/a,2022-12-08T14:14:56Z
2022-12-08 15:19:53,17,12.9,1008.7,SE,144,1.9,1.6,76.6,0.0,,,0.2,,,n/a,2022-12-08T14:19:53Z
2022-12-08 15:24:59,16.9,13,1008.8,SE,129,1.9,1.6,77.5,0.0,,,0.2,,,n/a,2022-12-08T14:24:59Z
2022-12-08 15:29:57,16.9,13,1008.8,SE,135,1.9,1.6,78,0.0,,,0.2,,,n/a,2022-12-08T14:29:57Z
2022-12-08 15:34:51,16.9,13,1008.8,SE,145,1.9,1.6,78,0.0,,,0.2,,,n/a,2022-12-08T14:34:51Z
2022-12-08 15:39:48,16.9,13.2,1008.8,SE,145,2,1.6,78.9,0.0,,,0.2,,,n/a,2022-12-08T14:39:48Z
2022-12-08 15:44:56,16.9,13.2,1008.8,SE,132,2,3.2,79,0.0,,,0.2,,,n/a,2022-12-08T14:44:56Z
2022-12-08 15:49:54,16.8,13.3,1008.8,SSE,147,3.5,6.4,79.8,0.0,,,0.2,,,n/a,2022-12-08T14:49:54Z
2022-12-08 15:54:50,16.7,13.3,1008.8,SE,141,2.5,4.8,80.3,0.0,,,0.2,,,n/a,2022-12-08T14:54:50Z
2022-12-08 15:59:48,16.7,13.4,1008.8,SSE,155,1.9,3.2,81,0.0,,,0.2,,,n/a,2022-12-08T14:59:48Z
2022-12-08 16:04:53,16.6,13.5,1008.8,SE,137,1.9,1.6,81.9,0.0,,,0.2,,,n/a,2022-12-08T15:04:53Z
2022-12-08 16:09:52,16.5,13.5,1008.8,SE,136,1.9,1.6,82.4,0.0,,,0.2,,,n/a,2022-12-08T15:09:52Z
2022-12-08 16:14:58,16.5,13.6,1008.8,SE,135,2.7,1.6,83,0.0,,,0.2,,,n/a,2022-12-08T15:14:58Z
2022-12-08 16:19:51,16.4,13.7,1008.9,SE,143,2.7,3.2,84,0.0,,,0.2,,,n/a,2022-12-08T15:19:51Z
2022-12-08 16:24:57,16.3,13.6,1009.0,SE,145,1.9,3.2,84,0.0,,,0.2,,,n/a,2022-12-08T15:24:57Z
2022-12-08 16:29:53,16.3,13.8,1009.0,SE,137,1.9,1.6,85,0.0,,,0.2,,,n/a,2022-12-08T15:29:53Z
2022-12-08 16:34:59,16.2,13.8,1009.0,SE,134,1.9,1.6,85.5,0.0,,,0.2,,,n/a,2022-12-08T15:34:59Z
2022-12-08 16:39:49,16.2,13.9,1009.0,SE,129,1.9,1.6,86,0.0,,,0.2,,,n/a,2022-12-08T15:39:49Z
2022-12-08 16:44:56,16.1,13.8,1009.0,SE,128,1.9,1.6,86,0.0,,,0.2,,,n/a,2022-12-08T15:44:56Z
2022-12-08 16:49:54,16.1,13.9,1009.1,SE,137,1.9,1.6,86.8,0.0,,,0.2,,,n/a,2022-12-08T15:49:54Z
2022-12-08 16:54:49,16,13.8,1009.2,SE,128,1.9,1.6,87,0.0,,,0.2,,,n/a,2022-12-08T15:54:49Z
2022-12-08 16:59:59,15.9,13.9,1009.3,SE,142,1.9,1.6,87.5,0.0,,,0.2,,,n/a,2022-12-08T15:59:59Z
2022-12-08 17:04:54,15.9,13.9,1009.3,SE,134,1.6,1.6,88,0.0,,,0.2,,,n/a,2022-12-08T16:04:54Z
2022-12-08 17:09:56,15.9,13.9,1009.3,SE,128,1.3,1.6,88,0.0,,,0.2,,,n/a,2022-12-08T16:09:56Z
2022-12-08 17:14:50,15.9,13.9,1009.3,SE,128,1.2,1.6,88,0.0,,,0.2,,,n/a,2022-12-08T16:14:50Z
2022-12-08 17:19:48,15.8,14,1009.4,SE,125,1.9,1.6,88.7,0.0,,,0.2,,,n/a,2022-12-08T16:19:48Z
2022-12-08 17:24:54,15.8,14,1009.4,ESE,121,1.9,1.6,89,0.0,,,0.2,,,n/a,2022-12-08T16:24:54Z
2022-12-08 17:29:50,15.8,14,1009.4,ESE,116,1.9,1.6,89,0.0,,,0.2,,,n/a,2022-12-08T16:29:50Z
2022-12-08 17:34:56,15.8,14.1,1009.5,ESE,112,1.9,1.6,89.5,0.0,,,0.2,,,n/a,2022-12-08T16:34:56Z
2022-12-08 17:39:58,15.8,14.2,1009.5,ESE,111,1.9,1.6,90,0.0,,,0.2,,,n/a,2022-12-08T16:39:58Z
2022-12-08 17:44:52,15.8,14.1,1009.5,ESE,106,1.9,1.6,90,0.0,,,0.2,,,n/a,2022-12-08T16:44:52Z
2022-12-08 17:49:48,15.7,14.1,1009.5,ESE,105,0.3,1.6,90,0.0,,,0.2,,,n/a,2022-12-08T16:49:48Z
2022-12-08 17:54:55,15.7,14.1,1009.5,ESE,102,1.7,0.6,90,0.0,,,0.2,,,n/a,2022-12-08T16:54:55Z
2022-12-08 17:59:50,15.6,14,1009.5,East,101,1.9,1.6,90,0.0,,,0.2,,,n/a,2022-12-08T16:59:50Z
2022-12-08 18:04:56,15.5,13.9,1009.5,East,98,1.6,1.6,90,0.0,,,0.2,,,n/a,2022-12-08T17:04:56Z
2022-12-08 18:09:53,15.5,13.9,1009.5,East,91,1.9,1.6,90,0.0,,,0.2,,,n/a,2022-12-08T17:09:53Z
2022-12-08 18:14:48,15.4,13.9,1009.4,East,86,1.9,1.6,90.1,0.0,,,0.2,,,n/a,2022-12-08T17:14:48Z
2022-12-08 18:19:56,15.4,13.9,1009.4,East,89,1.9,1.6,90.4,0.0,,,0.2,,,n/a,2022-12-08T17:19:56Z
2022-12-08 18:24:51,15.4,13.9,1009.5,East,90,2.4,1.6,91,0.0,,,0.2,,,n/a,2022-12-08T17:24:51Z
2022-12-08 18:29:50,15.3,13.9,1009.5,East,98,1.9,3.2,91,0.0,,,0.2,,,n/a,2022-12-08T17:29:50Z
2022-12-08 18:34:55,15.3,13.8,1009.5,East,97,1.9,1.6,91,0.0,,,0.2,,,n/a,2022-12-08T17:34:55Z
2022-12-08 18:39:57,15.2,13.8,1009.5,East,91,1.9,1.6,91,0.0,,,0.2,,,n/a,2022-12-08T17:39:57Z
2022-12-08 18:44:52,15.2,13.7,1009.5,East,90,1.9,1.6,91,0.0,,,0.2,,,n/a,2022-12-08T17:44:52Z
2022-12-08 18:49:50,15.2,13.7,1009.5,East,95,1.9,1.6,91,0.0,,,0.2,,,n/a,2022-12-08T17:49:50Z
2022-12-08 18:54:57,15.1,13.6,1009.5,ESE,106,1.9,1.6,91,0.0,,,0.2,,,n/a,2022-12-08T17:54:57Z
2022-12-08 18:59:56,15,13.5,1009.5,ESE,106,1.9,1.6,91,0.0,,,0.2,,,n/a,2022-12-08T17:59:56Z
2022-12-08 19:04:49,14.9,13.7,1009.5,East,98,1.9,3.2,91.9,0.0,,,0.2,,,n/a,2022-12-08T18:04:49Z
2022-12-08 19:09:51,15,13.7,1009.7,East,97,1.9,1.6,92,0.0,,,0.2,,,n/a,2022-12-08T18:09:51Z
2022-12-08 19:14:58,15,13.7,1009.7,East,96,1.9,1.6,92,0.0,,,0.2,,,n/a,2022-12-08T18:14:58Z
2022-12-08 19:19:56,15,13.7,1009.7,East,99,1.9,1.6,92,0.0,,,0.2,,,n/a,2022-12-08T18:19:56Z
2022-12-08 19:24:51,15,13.7,1009.8,East,101,1.9,1.6,92,0.0,,,0.2,,,n/a,2022-12-08T18:24:51Z
2022-12-08 19:29:49,15,13.7,1009.8,East,101,1.9,1.6,92,0.0,,,0.2,,,n/a,2022-12-08T18:29:49Z
2022-12-08 19:34:54,15,13.7,1009.9,East,101,1.8,1.6,92,0.0,,,0.2,,,n/a,2022-12-08T18:34:54Z
2022-12-08 19:39:56,15,13.7,1009.9,East,101,1.1,1.6,92,0.0,,,0.2,,,n/a,2022-12-08T18:39:56Z
2022-12-08 19:44:50,14.9,13.7,1009.8,East,99,1.9,1.6,92,0.0,,,0.2,,,n/a,2022-12-08T18:44:50Z
2022-12-08 19:49:56,14.8,13.6,1009.8,East,99,1.9,1.6,92,0.0,,,0.2,,,n/a,2022-12-08T18:49:56Z
2022-12-08 19:54:51,14.7,13.5,1009.8,ESE,106,1.9,1.6,92,0.0,,,0.2,,,n/a,2022-12-08T18:54:51Z
2022-12-08 19:59:58,14.7,13.4,1009.8,ESE,107,1.9,1.6,92,0.0,,,0.2,,,n/a,2022-12-08T18:59:58Z
2022-12-08 20:04:53,14.7,13.6,1009.8,ESE,118,1.9,1.6,92.6,0.0,,,0.2,,,n/a,2022-12-08T19:04:53Z
2022-12-08 20:09:53,14.8,13.7,1009.9,ESE,119,2.4,1.6,93,0.0,,,0.2,,,n/a,2022-12-08T19:09:53Z
2022-12-08 20:14:49,14.8,13.7,1009.9,ESE,121,1.9,3.2,93,0.0,,,0.2,,,n/a,2022-12-08T19:14:49Z
2022-12-08 20:19:52,14.8,13.7,1009.8,SE,128,1.9,1.6,93,0.0,,,0.2,,,n/a,2022-12-08T19:19:52Z
2022-12-08 20:24:54,14.7,13.6,1009.8,ESE,120,2.4,1.6,93,0.0,,,0.2,,,n/a,2022-12-08T19:24:54Z
2022-12-08 20:29:56,14.6,13.5,1009.8,SE,127,1.9,3.2,92.6,0.0,,,0.2,,,n/a,2022-12-08T19:29:56Z
2022-12-08 20:34:58,14.6,13.5,1009.9,SSE,147,2.6,1.8,93,0.0,,,0.2,,,n/a,2022-12-08T19:34:58Z
2022-12-08 20:39:50,14.6,13.5,1009.9,SSE,147,2.9,4.8,93,0.0,,,0.2,,,n/a,2022-12-08T19:39:50Z
2022-12-08 20:44:51,14.5,13.3,1009.9,SE,125,1.9,3.2,92.6,0.0,,,0.2,,,n/a,2022-12-08T19:44:51Z
2022-12-08 20:49:55,14.1,12.8,1010.0,ESE,107,3.1,1.6,92,0.0,,,0.2,,,n/a,2022-12-08T19:49:55Z
2022-12-08 20:54:52,13.9,12.8,1010.0,ESE,105,1.9,3.2,92.7,0.0,,,0.2,,,n/a,2022-12-08T19:54:52Z
2022-12-08 20:59:58,14,12.9,1010.0,ESE,118,1.9,1.6,93,0.0,,,0.2,,,n/a,2022-12-08T19:59:58Z
2022-12-08 21:04:51,14.2,13.1,1010.0,SE,142,2.3,1.6,93,0.0,,,0.2,,,n/a,2022-12-08T20:04:51Z
2022-12-08 21:09:50,14.3,13.2,1010.0,SSE,152,2.8,3.2,93.1,0.0,,,0.2,,,n/a,2022-12-08T20:09:50Z
2022-12-08 21:14:58,14.5,13.5,1009.9,SSE,153,2.8,3.2,94,0.0,,,0.2,,,n/a,2022-12-08T20:14:58Z
2022-12-08 21:19:55,14.6,13.5,1009.9,SSE,153,2.7,3.2,93.1,0.0,,,0.2,,,n/a,2022-12-08T20:19:55Z
2022-12-08 21:24:49,14.6,13.5,1009.8,SSE,149,1.9,3.2,93,0.0,,,0.5,,,n/a,2022-12-08T20:24:49Z
2022-12-08 21:29:54,14.6,13.5,1009.7,SE,143,2,1.6,93,0.2,,,0.5,,,n/a,2022-12-08T20:29:54Z
2022-12-08 21:34:36,14.5,13.4,1009.7,SE,140,2.6,3.2,93,0.2,,,0.5,,,n/a,2022-12-08T20:34:36Z